Time;durP1;ratioP1;P1;durP2;ratioP2;P2;SDS_P1;SDS_P2;PMS_P1;PMS_P2;Temp;Humidity;BMP_temperature;BMP_pressure;BME280_temperature;BME280_humidity;BME280_pressure;Samples;Min_cycle;Max_cycle;Signal;HPM_P1;HPM_P2
2022/01/04 00:00:15;;;;;;;18.23;17.13;;;11.90;81.70;;;;;;5032929;28;20571;-74
2022/01/04 00:02:42;;;;;;;18.87;17.87;;;11.90;82.00;;;;;;5033364;28;20534;-74
2022/01/04 00:05:10;;;;;;;18.80;17.60;;;11.80;82.40;;;;;;5033171;28;20506;-74
2022/01/04 00:07:39;;;;;;;22.00;20.50;;;11.90;82.30;;;;;;5032938;28;20823;-74
2022/01/04 00:10:08;;;;;;;18.90;17.90;;;11.90;82.30;;;;;;5032836;28;20472;-74
2022/01/04 00:15:20;;;;;;;17.00;16.20;;;11.90;82.20;;;;;;5033059;28;20801;-74
2022/01/04 00:17:47;;;;;;;18.37;17.37;;;11.90;82.20;;;;;;5032965;28;20455;-74
2022/01/04 00:20:14;;;;;;;17.43;16.53;;;11.90;82.50;;;;;;5032588;28;20478;-74
2022/01/04 00:22:43;;;;;;;17.77;16.90;;;11.90;82.70;;;;;;5032811;28;20818;-74
2022/01/04 00:25:10;;;;;;;18.10;17.03;;;11.80;83.00;;;;;;5032604;28;20949;-74
2022/01/04 00:27:37;;;;;;;17.93;17.03;;;11.90;83.00;;;;;;5032658;28;20889;-74
2022/01/04 00:30:05;;;;;;;17.80;16.90;;;11.90;82.90;;;;;;5032524;28;20530;-74
2022/01/04 00:32:32;;;;;;;17.97;17.10;;;11.80;83.10;;;;;;5032723;28;20547;-74
2022/01/04 00:34:58;;;;;;;17.90;16.87;;;11.80;83.60;;;;;;5032687;28;20450;-74
2022/01/04 00:37:25;;;;;;;17.50;16.70;;;11.80;83.40;;;;;;5032605;28;20543;-73
2022/01/04 00:39:53;;;;;;;17.77;16.87;;;11.80;83.70;;;;;;5032273;28;20472;-74
2022/01/04 00:42:20;;;;;;;17.30;16.40;;;11.80;83.60;;;;;;5032791;28;20884;-74
2022/01/04 00:44:47;;;;;;;17.57;16.67;;;11.90;83.40;;;;;;5032723;28;20821;-74
2022/01/04 00:47:15;;;;;;;17.70;16.80;;;11.80;83.60;;;;;;5032418;28;20555;-74
2022/01/04 00:49:44;;;;;;;17.07;16.27;;;11.70;84.20;;;;;;5032219;28;20479;-74
2022/01/04 00:52:16;;;;;;;16.60;15.80;;;11.80;83.80;;;;;;5032499;28;20452;-74
2022/01/04 00:54:45;;;;;;;17.50;16.70;;;11.70;84.10;;;;;;5032505;28;20456;-74
2022/01/04 00:57:13;;;;;;;18.23;17.13;;;11.80;83.90;;;;;;5032685;28;20479;-74
2022/01/04 00:59:40;;;;;;;17.40;16.50;;;11.80;83.90;;;;;;5032206;28;20557;-74
2022/01/04 01:02:07;;;;;;;17.07;16.27;;;11.80;84.00;;;;;;5032614;28;20797;-74
2022/01/04 01:04:34;;;;;;;18.30;17.30;;;11.70;84.10;;;;;;5032376;28;20456;-74
2022/01/04 01:07:01;;;;;;;17.20;16.40;;;11.70;84.30;;;;;;5032384;28;20456;-74
2022/01/04 01:09:32;;;;;;;16.10;15.30;;;11.70;84.40;;;;;;5035322;28;20486;-74
2022/01/04 01:11:59;;;;;;;16.43;15.67;;;11.70;84.80;;;;;;5036523;28;20456;-74
2022/01/04 01:14:27;;;;;;;16.37;15.60;;;11.70;84.70;;;;;;5036257;28;20937;-74
2022/01/04 01:16:54;;;;;;;17.10;16.30;;;11.70;84.90;;;;;;5036241;28;20538;-74
2022/01/04 01:19:21;;;;;;;16.37;15.67;;;11.70;84.90;;;;;;5035899;28;20474;-74
2022/01/04 01:21:48;;;;;;;16.00;15.30;;;11.70;84.80;;;;;;5036198;28;20810;-74
2022/01/04 01:24:17;;;;;;;16.33;15.60;;;11.70;85.10;;;;;;5036022;28;20451;-74
2022/01/04 01:26:45;;;;;;;16.67;15.93;;;11.80;85.20;;;;;;5036144;28;20960;-74
2022/01/04 01:29:12;;;;;;;16.67;15.77;;;11.70;85.10;;;;;;5035689;28;20483;-74
2022/01/04 01:31:40;;;;;;;16.93;16.07;;;11.70;85.40;;;;;;5036158;28;20483;-74
2022/01/04 01:34:07;;;;;;;17.00;16.10;;;11.60;85.60;;;;;;5035988;28;20876;-74
2022/01/04 01:36:34;;;;;;;16.53;15.73;;;11.70;85.70;;;;;;5036018;28;20805;-74
2022/01/04 01:39:01;;;;;;;17.23;16.43;;;11.70;85.70;;;;;;5035805;28;20467;-74
2022/01/04 01:41:28;;;;;;;17.17;16.37;;;11.60;86.00;;;;;;5035697;28;20456;-74
2022/01/04 01:43:55;;;;;;;17.40;16.40;;;11.60;86.30;;;;;;5035720;28;20451;-74
2022/01/04 01:46:22;;;;;;;17.23;16.43;;;11.60;86.30;;;;;;5035561;28;20448;-74
2022/01/04 01:48:50;;;;;;;19.50;18.40;;;11.50;86.80;;;;;;5035509;28;20483;-74
2022/01/04 01:51:17;;;;;;;17.60;16.70;;;11.60;86.70;;;;;;5035394;28;20539;-74
2022/01/04 01:53:44;;;;;;;17.63;16.73;;;11.60;86.50;;;;;;5035650;28;20456;-74
2022/01/04 01:56:11;;;;;;;17.17;16.20;;;11.50;87.10;;;;;;5035445;28;20451;-74
2022/01/04 01:58:38;;;;;;;16.87;16.07;;;11.60;86.80;;;;;;5035491;28;20794;-74
2022/01/04 02:01:05;;;;;;;16.80;16.00;;;11.50;86.80;;;;;;5035315;28;20452;-74
2022/01/04 02:03:32;;;;;;;16.33;15.50;;;11.50;86.90;;;;;;5035427;28;20538;-74
2022/01/04 02:06:00;;;;;;;16.67;15.87;;;11.50;87.00;;;;;;5035498;28;20468;-74
2022/01/04 02:08:29;;;;;;;16.63;15.70;;;11.50;87.10;;;;;;5035179;28;20554;-74
2022/01/04 02:10:58;;;;;;;16.90;16.10;;;11.40;87.10;;;;;;5035175;28;20551;-74
2022/01/04 02:13:25;;;;;;;16.90;15.97;;;11.40;87.20;;;;;;5035119;28;20534;-74
2022/01/04 02:15:52;;;;;;;17.10;16.20;;;11.40;87.40;;;;;;5035089;28;20452;-74
2022/01/04 02:18:19;;;;;;;16.80;16.00;;;11.30;87.50;;;;;;5034740;28;20531;-74
2022/01/04 02:20:47;;;;;;;17.40;16.50;;;11.30;87.60;;;;;;5034795;28;20472;-74
2022/01/04 02:23:14;;;;;;;17.53;16.63;;;11.40;87.00;;;;;;5035114;28;20452;-74
2022/01/04 02:25:42;;;;;;;16.87;16.07;;;11.30;87.30;;;;;;5034860;28;20460;-74
2022/01/04 02:28:09;;;;;;;17.03;16.00;;;11.30;87.10;;;;;;5034863;28;20505;-74
2022/01/04 02:30:35;;;;;;;16.80;15.90;;;11.40;87.10;;;;;;5034641;28;20498;-74
2022/01/04 02:33:02;;;;;;;17.40;16.40;;;11.40;87.10;;;;;;5034765;28;20452;-74
2022/01/04 02:35:31;;;;;;;16.33;15.33;;;11.50;86.40;;;;;;5034900;28;20455;-74
2022/01/04 02:38:01;;;;;;;16.70;15.90;;;11.70;85.70;;;;;;5034748;28;20813;-74
2022/01/04 02:40:29;;;;;;;17.17;16.17;;;11.50;86.10;;;;;;5034501;28;20476;-73
2022/01/04 02:42:56;;;;;;;17.17;16.03;;;11.40;86.40;;;;;;5034863;28;20460;-73
2022/01/04 02:45:23;;;;;;;16.80;16.00;;;11.50;86.40;;;;;;5034554;28;20458;-74
2022/01/04 02:47:50;;;;;;;17.60;16.70;;;11.50;86.20;;;;;;5034386;28;20482;-74
2022/01/04 02:50:18;;;;;;;17.13;16.23;;;11.60;85.60;;;;;;5034145;28;20841;-74
2022/01/04 02:52:45;;;;;;;17.10;16.20;;;11.60;85.50;;;;;;5034421;28;20484;-74
2022/01/04 02:55:15;;;;;;;16.57;15.77;;;11.50;85.80;;;;;;5034333;28;20455;-74
2022/01/04 02:57:43;;;;;;;17.17;16.37;;;11.50;85.80;;;;;;5034395;28;20452;-74
2022/01/04 03:00:12;;;;;;;17.50;16.50;;;11.50;85.80;;;;;;5034100;28;20912;-74
2022/01/04 03:02:39;;;;;;;17.30;16.50;;;11.60;85.60;;;;;;5034568;28;20463;-74
2022/01/04 03:05:07;;;;;;;18.13;17.23;;;11.70;85.00;;;;;;5034252;28;20963;-73
2022/01/04 03:07:34;;;;;;;18.03;17.13;;;11.80;84.50;;;;;;5034135;28;20448;-73
2022/01/04 03:10:01;;;;;;;17.90;17.00;;;11.70;84.50;;;;;;5033795;28;20494;-74
2022/01/04 03:12:29;;;;;;;18.20;17.20;;;11.80;84.40;;;;;;5034112;28;20547;-73
2022/01/04 03:14:56;;;;;;;18.33;17.23;;;11.80;84.60;;;;;;5034146;28;20543;-73
2022/01/04 03:17:23;;;;;;;18.03;17.03;;;11.70;84.60;;;;;;5034173;28;20452;-73
2022/01/04 03:19:50;;;;;;;18.43;17.53;;;11.80;84.50;;;;;;5033761;28;20844;-73
2022/01/04 03:22:17;;;;;;;17.90;17.00;;;11.70;84.70;;;;;;5033793;28;20448;-73
2022/01/04 03:24:44;;;;;;;19.10;18.13;;;11.90;84.20;;;;;;5033794;28;20470;-73
2022/01/04 03:27:12;;;;;;;17.70;16.70;;;11.90;84.00;;;;;;5033902;28;20484;-73
2022/01/04 03:29:40;;;;;;;17.30;16.50;;;11.90;84.10;;;;;;5033464;28;20487;-73
2022/01/04 03:32:08;;;;;;;18.00;17.10;;;11.90;84.30;;;;;;5032919;28;20547;-73
2022/01/04 03:34:35;;;;;;;17.80;16.90;;;11.80;84.60;;;;;;5033558;28;20929;-74
2022/01/04 03:37:04;;;;;;;18.20;17.30;;;11.80;84.80;;;;;;5033638;28;20558;-73
2022/01/04 03:39:31;;;;;;;18.00;17.00;;;11.90;84.70;;;;;;5033435;28;20474;-73
2022/01/04 03:41:58;;;;;;;19.37;18.30;;;11.90;84.60;;;;;;5033485;28;20456;-73
2022/01/04 03:44:25;;;;;;;18.97;17.90;;;11.80;84.80;;;;;;5033396;28;20963;-73
2022/01/04 03:46:55;;;;;;;18.10;17.10;;;11.90;84.30;;;;;;5033115;28;20854;-73
2022/01/04 03:49:22;;;;;;;17.70;16.80;;;11.90;84.50;;;;;;5033061;28;20483;-73
2022/01/04 03:51:49;;;;;;;18.00;17.10;;;11.90;84.80;;;;;;5033385;28;20462;-73
2022/01/04 03:54:17;;;;;;;17.90;17.00;;;12.00;84.50;;;;;;5033665;28;20448;-73
2022/01/04 03:56:44;;;;;;;17.90;17.00;;;11.90;84.40;;;;;;5033364;28;20869;-73
2022/01/04 03:59:11;;;;;;;17.90;17.10;;;12.00;84.20;;;;;;5032895;28;20995;-74
2022/01/04 04:01:37;;;;;;;17.80;16.90;;;12.10;84.30;;;;;;5033221;28;20454;-73
2022/01/04 04:04:06;;;;;;;18.33;17.43;;;12.00;83.80;;;;;;5033114;28;20456;-73
2022/01/04 04:06:33;;;;;;;18.23;16.97;;;12.00;84.20;;;;;;5032959;28;20456;-73
2022/01/04 04:09:00;;;;;;;18.10;17.20;;;12.00;84.00;;;;;;5032819;28;20484;-74
2022/01/04 04:11:27;;;;;;;19.67;18.67;;;12.00;84.20;;;;;;5033048;28;20454;-73
2022/01/04 04:13:54;;;;;;;17.93;17.10;;;12.10;83.90;;;;;;5033043;28;20456;-73
2022/01/04 04:16:21;;;;;;;19.20;18.20;;;12.10;83.90;;;;;;5032873;28;20456;-73
2022/01/04 04:18:48;;;;;;;18.57;17.67;;;12.10;83.90;;;;;;5032858;28;20467;-73
2022/01/04 04:21:16;;;;;;;18.00;17.10;;;12.10;84.00;;;;;;5032710;28;20945;-73
2022/01/04 04:23:43;;;;;;;19.27;18.17;;;12.10;84.20;;;;;;5032917;28;20440;-73
2022/01/04 04:26:10;;;;;;;20.33;19.13;;;12.10;84.40;;;;;;5032791;28;20470;-73
2022/01/04 04:28:37;;;;;;;18.27;17.37;;;12.10;84.10;;;;;;5032668;28;20875;-73
2022/01/04 04:31:05;;;;;;;20.07;18.97;;;12.10;84.30;;;;;;5032663;28;20539;-73
2022/01/04 04:33:33;;;;;;;17.97;17.07;;;12.20;84.30;;;;;;5032859;28;20462;-73
2022/01/04 04:36:00;;;;;;;18.10;17.20;;;12.10;84.60;;;;;;5032822;28;20546;-73
2022/01/04 04:38:28;;;;;;;17.93;17.03;;;12.10;85.00;;;;;;5032623;28;20460;-73
2022/01/04 04:40:55;;;;;;;17.70;16.80;;;12.20;85.00;;;;;;5032566;28;20448;-73
2022/01/04 04:43:22;;;;;;;18.13;17.23;;;12.20;85.00;;;;;;5032553;28;20458;-73
2022/01/04 04:45:49;;;;;;;18.23;17.23;;;12.20;85.20;;;;;;5032460;28;20551;-74
2022/01/04 04:48:16;;;;;;;18.47;17.40;;;12.20;85.10;;;;;;5032718;28;20886;-74
2022/01/04 04:50:43;;;;;;;18.50;17.50;;;12.20;85.70;;;;;;5032250;28;20972;-74
2022/01/04 04:53:10;;;;;;;18.97;17.90;;;12.10;85.90;;;;;;5032371;28;20916;-73
2022/01/04 04:55:38;;;;;;;18.90;17.90;;;12.10;85.90;;;;;;5032777;28;20456;-73
2022/01/04 04:58:06;;;;;;;17.37;16.57;;;12.10;85.90;;;;;;5032502;28;20459;-73
2022/01/04 05:00:33;;;;;;;18.90;17.90;;;12.20;85.70;;;;;;5032353;28;20474;-73
2022/01/04 05:03:00;;;;;;;18.67;17.77;;;12.20;85.80;;;;;;5032444;28;20458;-74
2022/01/04 05:05:27;;;;;;;18.60;17.70;;;12.20;86.10;;;;;;5032547;28;20874;-74
2022/01/04 05:07:53;;;;;;;18.73;17.73;;;12.00;86.40;;;;;;5032445;28;20458;-73
2022/01/04 05:10:20;;;;;;;18.10;17.20;;;12.10;86.40;;;;;;5032061;28;20498;-73
2022/01/04 05:12:49;;;;;;;18.03;17.10;;;12.20;86.60;;;;;;5032461;28;20534;-72
2022/01/04 05:15:15;;;;;;;18.37;17.47;;;12.10;86.60;;;;;;5032443;28;20458;-73
2022/01/04 05:17:42;;;;;;;18.43;17.53;;;12.10;87.00;;;;;;5032310;28;20516;-73
2022/01/04 05:20:10;;;;;;;18.67;17.57;;;12.10;87.00;;;;;;5032082;28;20586;-73
2022/01/04 05:22:37;;;;;;;17.57;16.77;;;12.10;87.10;;;;;;5032273;28;20934;-73
2022/01/04 05:25:05;;;;;;;17.50;16.60;;;12.10;87.30;;;;;;5032031;28;20802;-73
2022/01/04 05:27:32;;;;;;;17.70;16.90;;;12.10;87.20;;;;;;5032217;28;20477;-73
2022/01/04 05:30:00;;;;;;;17.57;16.63;;;12.10;87.50;;;;;;5031874;28;20807;-73
2022/01/04 05:32:27;;;;;;;17.40;16.60;;;12.10;87.40;;;;;;5032361;28;20538;-73
2022/01/04 05:34:54;;;;;;;17.30;16.40;;;12.00;87.90;;;;;;5032172;28;20487;-73
2022/01/04 05:37:20;;;;;;;17.97;17.17;;;12.00;88.00;;;;;;5032021;28;20450;-73
2022/01/04 05:39:47;;;;;;;16.10;15.30;;;12.10;88.60;;;;;;5031862;28;20464;-73
2022/01/04 05:42:14;;;;;;;17.90;17.00;;;12.00;88.60;;;;;;5032206;28;20896;-73
2022/01/04 05:44:41;;;;;;;16.77;15.87;;;12.00;89.10;;;;;;5032154;28;20463;-73
2022/01/04 05:47:09;;;;;;;18.90;18.00;;;12.00;89.30;;;;;;5031754;28;20966;-73
2022/01/04 05:49:37;;;;;;;16.10;15.40;;;12.00;89.40;;;;;;5031613;28;20567;-73
2022/01/04 05:52:05;;;;;;;16.20;15.23;;;12.00;89.60;;;;;;5031871;28;20499;-73
2022/01/04 05:54:32;;;;;;;16.23;15.23;;;12.00;89.60;;;;;;5033324;28;20877;-73
2022/01/04 05:56:59;;;;;;;17.10;16.30;;;11.90;90.30;;;;;;5035388;28;20448;-73
2022/01/04 05:59:25;;;;;;;16.77;15.97;;;11.90;90.40;;;;;;5035250;28;20472;-73
2022/01/04 06:01:52;;;;;;;17.07;16.27;;;11.90;90.40;;;;;;5035410;28;20543;-73
2022/01/04 06:04:21;;;;;;;15.97;15.23;;;11.90;90.60;;;;;;5035371;28;20806;-73
2022/01/04 06:06:48;;;;;;;16.60;15.80;;;11.90;90.70;;;;;;5035401;28;20971;-73
2022/01/04 06:09:21;;;;;;;17.43;16.63;;;11.90;90.60;;;;;;5034956;28;20555;-73
2022/01/04 06:12:01;;;;;;;16.20;15.40;;;11.90;90.50;;;;;;5035371;28;20995;-73
2022/01/04 06:17:12;;;;;;;18.30;17.40;;;11.90;90.80;;;;;;5035310;28;20890;-73
2022/01/04 06:19:41;;;;;;;16.03;15.33;;;11.90;90.90;;;;;;5034808;28;20474;-73
2022/01/04 06:22:08;;;;;;;16.50;15.60;;;11.90;91.20;;;;;;5035166;28;20779;-73
2022/01/04 06:24:36;;;;;;;16.13;15.40;;;11.90;91.20;;;;;;5035047;28;20460;-72
2022/01/04 06:27:06;;;;;;;16.67;15.87;;;12.00;91.00;;;;;;5035150;28;20467;-73
2022/01/04 06:29:33;;;;;;;16.70;15.80;;;11.90;90.90;;;;;;5034555;28;20848;-73
2022/01/04 06:32:00;;;;;;;16.63;15.77;;;12.00;91.30;;;;;;5034918;28;20452;-73
2022/01/04 06:34:27;;;;;;;15.30;14.60;;;12.00;91.40;;;;;;5034921;28;20963;-73
2022/01/04 06:36:55;;;;;;;16.13;15.23;;;11.90;91.30;;;;;;5034820;28;20826;-73
2022/01/04 06:39:22;;;;;;;16.00;15.20;;;11.80;91.60;;;;;;5034602;28;20480;-73
2022/01/04 06:41:49;;;;;;;16.30;15.40;;;11.90;91.60;;;;;;5034859;28;20452;-73
2022/01/04 06:44:16;;;;;;;17.87;17.07;;;11.90;91.50;;;;;;5034430;28;20941;-73
2022/01/04 06:46:45;;;;;;;15.93;15.20;;;12.00;91.30;;;;;;5034556;28;20958;-73
2022/01/04 06:49:13;;;;;;;15.87;15.13;;;12.00;91.30;;;;;;5034356;28;20471;-73
2022/01/04 06:51:41;;;;;;;17.20;16.40;;;12.00;91.30;;;;;;5034610;28;20460;-73
2022/01/04 06:54:11;;;;;;;16.00;15.20;;;12.00;91.60;;;;;;5034571;28;20975;-73
2022/01/04 06:56:38;;;;;;;15.40;14.50;;;12.00;91.60;;;;;;5034327;28;20454;-73
2022/01/04 06:59:06;;;;;;;16.97;16.00;;;12.00;91.50;;;;;;5034211;28;20467;-73
2022/01/04 07:01:34;;;;;;;16.73;15.93;;;12.00;91.40;;;;;;5034296;28;20528;-73
2022/01/04 07:04:01;;;;;;;15.20;14.50;;;12.00;91.50;;;;;;5034264;28;20455;-73
2022/01/04 07:06:28;;;;;;;16.53;15.63;;;11.90;91.70;;;;;;5034303;28;20809;-73
2022/01/04 07:08:55;;;;;;;15.70;15.00;;;12.00;91.90;;;;;;5034062;28;20474;-73
2022/01/04 07:11:23;;;;;;;16.80;16.10;;;12.10;91.60;;;;;;5033876;28;20888;-73
2022/01/04 07:13:50;;;;;;;15.70;14.90;;;12.10;91.70;;;;;;5034096;28;20460;-73
2022/01/04 07:16:17;;;;;;;15.60;14.90;;;11.90;91.80;;;;;;5034020;28;20448;-73
2022/01/04 07:18:46;;;;;;;15.60;14.80;;;11.90;92.20;;;;;;5034017;28;20455;-73
2022/01/04 07:21:13;;;;;;;15.17;14.37;;;11.90;92.30;;;;;;5033877;28;20450;-73
2022/01/04 07:23:41;;;;;;;16.60;15.70;;;12.00;92.40;;;;;;5033945;28;20458;-73
2022/01/04 07:26:11;;;;;;;12.57;11.83;;;12.00;92.30;;;;;;5033760;28;20464;-73
2022/01/04 07:28:40;;;;;;;15.73;14.93;;;11.90;92.30;;;;;;5033926;28;20462;-73
2022/01/04 07:31:07;;;;;;;14.80;14.10;;;11.90;92.70;;;;;;5033607;28;20476;-73
2022/01/04 07:33:34;;;;;;;16.37;15.33;;;11.90;93.00;;;;;;5033680;28;20953;-73
2022/01/04 07:36:01;;;;;;;15.03;14.30;;;11.90;93.00;;;;;;5033640;28;21013;-73
2022/01/04 07:38:28;;;;;;;14.93;14.23;;;12.00;92.70;;;;;;5033510;28;20462;-73
2022/01/04 07:40:55;;;;;;;15.67;14.90;;;12.00;93.00;;;;;;5033536;28;20448;-73
2022/01/04 07:43:22;;;;;;;15.90;15.10;;;12.10;92.50;;;;;;5033519;28;20474;-73
2022/01/04 07:45:50;;;;;;;16.40;15.70;;;12.10;92.50;;;;;;5033348;28;20847;-73
2022/01/04 07:48:17;;;;;;;14.60;13.80;;;12.10;92.50;;;;;;5033383;28;20510;-73
2022/01/04 07:50:44;;;;;;;15.60;14.90;;;12.20;92.30;;;;;;5033116;28;20861;-73
2022/01/04 07:53:11;;;;;;;15.60;14.90;;;12.20;92.10;;;;;;5032961;28;20460;-73
2022/01/04 07:55:38;;;;;;;15.23;14.43;;;12.20;92.30;;;;;;5033436;28;20888;-73
2022/01/04 07:58:05;;;;;;;14.80;14.00;;;12.30;92.10;;;;;;5033188;28;20817;-73
2022/01/04 08:00:32;;;;;;;16.00;15.30;;;12.40;91.50;;;;;;5040615;22;20482;-73
2022/01/04 08:03:00;;;;;;;11.77;11.30;;;12.40;91.40;;;;;;5033149;28;20782;-73
2022/01/04 08:05:27;;;;;;;15.30;14.60;;;12.50;91.40;;;;;;5033281;28;20444;-73
2022/01/04 08:07:54;;;;;;;17.00;16.30;;;12.70;90.60;;;;;;5032988;28;20452;-73
2022/01/04 08:10:21;;;;;;;15.50;14.80;;;12.70;90.50;;;;;;5032751;28;20575;-73
2022/01/04 08:12:47;;;;;;;16.40;15.60;;;12.70;90.30;;;;;;5033140;28;20937;-73
2022/01/04 08:15:14;;;;;;;15.57;14.87;;;12.80;90.00;;;;;;5033131;28;20816;-73
2022/01/04 08:17:41;;;;;;;16.00;15.20;;;12.80;89.80;;;;;;5032514;28;20452;-73
2022/01/04 08:20:11;;;;;;;15.20;14.50;;;12.90;89.50;;;;;;5032753;28;20510;-73
2022/01/04 08:22:38;;;;;;;16.30;15.60;;;13.00;89.30;;;;;;5032975;28;20861;-73
2022/01/04 08:25:08;;;;;;;15.13;14.43;;;13.00;88.90;;;;;;5032885;28;20539;-73
2022/01/04 08:27:35;;;;;;;15.40;14.70;;;13.10;88.80;;;;;;5032870;28;20474;-73
2022/01/04 08:30:03;;;;;;;15.80;15.10;;;13.20;88.60;;;;;;5032621;28;20828;-73
2022/01/04 08:32:30;;;;;;;15.43;14.63;;;13.30;88.20;;;;;;5032861;28;20456;-73
2022/01/04 08:34:57;;;;;;;16.90;16.10;;;13.20;88.40;;;;;;5032702;28;20460;-73
2022/01/04 08:37:26;;;;;;;16.73;15.70;;;13.30;88.40;;;;;;5032794;28;20488;-74
2022/01/04 08:39:54;;;;;;;16.80;16.00;;;13.30;87.90;;;;;;5032496;28;20468;-73
2022/01/04 08:42:22;;;;;;;17.10;16.20;;;13.40;87.50;;;;;;5032741;28;20459;-74
2022/01/04 08:44:49;;;;;;;16.07;15.33;;;13.40;87.40;;;;;;5032565;28;20960;-73
2022/01/04 08:47:16;;;;;;;17.50;16.60;;;13.40;87.20;;;;;;5032300;28;20993;-74
2022/01/04 08:49:43;;;;;;;17.07;16.30;;;13.50;86.90;;;;;;5032483;28;20504;-73
2022/01/04 08:52:10;;;;;;;17.63;16.73;;;13.50;87.20;;;;;;5032467;28;21085;-73
2022/01/04 08:54:39;;;;;;;17.67;16.87;;;13.50;87.00;;;;;;5032409;28;20535;-73
2022/01/04 08:57:07;;;;;;;17.10;16.30;;;13.50;87.00;;;;;;5032462;28;20474;-73
2022/01/04 08:59:34;;;;;;;18.00;17.20;;;13.60;86.60;;;;;;5032291;28;20476;-73
2022/01/04 09:02:01;;;;;;;17.30;16.10;;;13.60;86.40;;;;;;5032460;28;20502;-73
2022/01/04 09:04:28;;;;;;;17.37;16.37;;;13.60;86.10;;;;;;5032513;28;20810;-73
2022/01/04 09:06:55;;;;;;;16.93;16.13;;;13.70;85.80;;;;;;5032325;28;20823;-73
2022/01/04 09:09:22;;;;;;;17.50;16.60;;;13.70;85.70;;;;;;5032158;28;20476;-73
2022/01/04 09:11:50;;;;;;;18.23;16.97;;;13.80;85.00;;;;;;5032407;28;20519;-73
2022/01/04 09:14:27;;;;;;;17.17;16.37;;;13.90;84.70;;;;;;5032278;28;20466;-73
2022/01/04 09:19:39;;;;;;;17.87;17.07;;;13.80;84.80;;;;;;5032187;28;20968;-73
2022/01/04 09:22:07;;;;;;;17.17;16.37;;;13.70;85.50;;;;;;5032349;28;20525;-74
2022/01/04 09:24:34;;;;;;;17.13;16.13;;;13.80;85.20;;;;;;5032202;28;20820;-73
2022/01/04 09:27:05;;;;;;;17.40;16.47;;;13.80;85.20;;;;;;5032333;28;20484;-73
2022/01/04 09:29:32;;;;;;;16.83;16.00;;;13.80;85.00;;;;;;5033843;28;20483;-73
2022/01/04 09:32:01;;;;;;;18.83;17.90;;;13.80;85.00;;;;;;5035983;28;20502;-73
2022/01/04 09:34:28;;;;;;;17.60;16.80;;;13.80;85.00;;;;;;5036033;28;20456;-73
2022/01/04 09:36:56;;;;;;;17.83;17.00;;;13.80;85.60;;;;;;5035817;28;20462;-73
2022/01/04 09:39:24;;;;;;;18.00;17.10;;;13.70;85.80;;;;;;5035790;28;20837;-73
2022/01/04 09:41:53;;;;;;;18.33;17.37;;;13.60;86.40;;;;;;5035970;28;20448;-73
2022/01/04 09:44:22;;;;;;;18.17;17.37;;;13.70;86.50;;;;;;5035807;28;20451;-73
2022/01/04 09:46:52;;;;;;;18.17;17.27;;;13.70;86.20;;;;;;5035710;28;20812;-73
2022/01/04 09:49:19;;;;;;;18.53;17.63;;;13.60;86.50;;;;;;5035410;28;20968;-73
2022/01/04 09:51:47;;;;;;;18.93;17.90;;;13.60;87.10;;;;;;5035448;28;20933;-73
2022/01/04 09:54:19;;;;;;;17.70;16.83;;;13.50;87.60;;;;;;5035686;28;20455;-73
2022/01/04 09:56:47;;;;;;;17.17;16.27;;;13.50;87.40;;;;;;5035597;28;20909;-73
2022/01/04 09:59:14;;;;;;;16.60;15.90;;;13.50;87.40;;;;;;5035351;28;20554;-73
2022/01/04 10:01:45;;;;;;;18.43;17.43;;;13.60;87.40;;;;;;5035561;28;20471;-73
2022/01/04 10:04:13;;;;;;;16.17;15.20;;;13.60;87.30;;;;;;5035399;28;20945;-73
2022/01/04 10:06:41;;;;;;;18.03;17.13;;;13.60;87.30;;;;;;5035614;28;20538;-73
2022/01/04 10:09:11;;;;;;;16.60;15.70;;;13.70;87.30;;;;;;5035632;28;20472;-73
2022/01/04 10:11:42;;;;;;;16.57;15.77;;;13.70;87.10;;;;;;5035421;28;20480;-73
2022/01/04 10:14:25;;;;;;;16.47;15.67;;;13.80;86.50;;;;;;5035324;28;20455;-73
2022/01/04 10:16:54;;;;;;;18.00;17.20;;;13.80;86.80;;;;;;5033538;28;20463;-73
2022/01/04 10:19:29;;;;;;;17.57;16.77;;;13.80;86.60;;;;;;5034899;28;20456;-73
2022/01/04 10:22:12;;;;;;;16.63;15.83;;;13.90;86.30;;;;;;5035196;28;20518;-73
2022/01/04 10:24:40;;;;;;;17.33;16.53;;;13.90;86.30;;;;;;5035098;28;20456;-73
2022/01/04 10:27:28;;;;;;;16.73;16.03;;;13.80;86.20;;;;;;5035081;28;20809;-73
2022/01/04 10:30:16;;;;;;;18.47;17.67;;;13.90;86.20;;;;;;5034826;28;20475;-73
2022/01/04 10:32:46;;;;;;;17.73;16.83;;;13.90;85.90;;;;;;5034907;28;20476;-73
2022/01/04 10:35:24;;;;;;;18.30;17.40;;;13.90;85.70;;;;;;5034779;28;20535;-73
2022/01/04 10:37:51;;;;;;;18.30;17.30;;;14.00;85.40;;;;;;5034822;28;20825;-73
2022/01/04 10:40:19;;;;;;;17.77;16.97;;;14.00;84.40;;;;;;5034191;28;20555;-73
2022/01/04 10:42:46;;;;;;;18.53;17.63;;;14.10;83.90;;;;;;5034837;28;20480;-73
2022/01/04 10:45:24;;;;;;;19.93;18.93;;;14.20;84.00;;;;;;5034803;28;20478;-73
2022/01/04 10:47:53;;;;;;;17.97;17.07;;;14.30;83.70;;;;;;5034256;28;20455;-73
2022/01/04 10:50:34;;;;;;;19.03;18.13;;;14.30;83.30;;;;;;5034283;28;21048;-73
2022/01/04 10:53:02;;;;;;;19.00;17.70;;;14.40;83.00;;;;;;5034415;28;20509;-73
2022/01/04 10:55:33;;;;;;;19.97;18.87;;;14.40;82.60;;;;;;5034407;28;20543;-73
2022/01/04 10:58:00;;;;;;;19.93;18.87;;;14.30;83.20;;;;;;5034401;28;20452;-73
2022/01/04 11:00:28;;;;;;;18.20;17.30;;;14.30;83.10;;;;;;5034022;28;20468;-73
2022/01/04 11:02:58;;;;;;;17.97;17.10;;;14.30;82.90;;;;;;5034520;28;20459;-73
2022/01/04 11:05:26;;;;;;;20.37;19.37;;;14.30;83.00;;;;;;5034482;28;20821;-73
2022/01/04 11:08:04;;;;;;;20.13;19.03;;;14.30;83.10;;;;;;5034358;28;20550;-73
2022/01/04 11:10:34;;;;;;;19.30;18.20;;;14.30;83.20;;;;;;5034080;28;20471;-73
2022/01/04 11:13:01;;;;;;;20.80;19.50;;;14.40;82.90;;;;;;5034188;28;20483;-73
2022/01/04 11:15:30;;;;;;;20.43;19.47;;;14.40;82.90;;;;;;5034146;28;20479;-73
2022/01/04 11:18:04;;;;;;;19.27;18.27;;;14.50;82.00;;;;;;5034182;28;20463;-73
2022/01/04 11:20:31;;;;;;;20.00;19.10;;;14.50;81.70;;;;;;5034045;28;20478;-73
2022/01/04 11:23:01;;;;;;;19.57;18.37;;;14.60;81.10;;;;;;5034321;28;20953;-73
2022/01/04 11:25:29;;;;;;;20.73;19.43;;;14.60;81.30;;;;;;5034024;28;20452;-73
2022/01/04 11:28:00;;;;;;;20.37;19.27;;;14.60;81.30;;;;;;5033958;28;20551;-73
2022/01/04 11:30:35;;;;;;;18.87;17.97;;;14.50;81.40;;;;;;5033863;28;20472;-73
2022/01/04 11:33:14;;;;;;;20.83;19.70;;;14.50;81.50;;;;;;5033706;28;20809;-73
2022/01/04 11:35:41;;;;;;;20.37;19.33;;;14.50;81.40;;;;;;5034133;28;20542;-73
2022/01/04 11:38:08;;;;;;;18.57;17.50;;;14.50;81.90;;;;;;5033777;28;20963;-73
2022/01/04 11:40:41;;;;;;;19.10;18.10;;;14.40;82.50;;;;;;5033756;28;20519;-73
2022/01/04 11:43:26;;;;;;;19.17;18.17;;;14.30;83.00;;;;;;5033780;28;20539;-73
2022/01/04 11:45:53;;;;;;;19.27;18.30;;;14.20;83.50;;;;;;5033463;28;20937;-73
2022/01/04 11:48:30;;;;;;;19.67;18.57;;;14.10;83.90;;;;;;5033559;28;20948;-73
2022/01/04 11:51:01;;;;;;;20.20;19.20;;;14.20;83.70;;;;;;5033085;28;20814;-73
2022/01/04 11:53:28;;;;;;;20.97;19.77;;;14.20;84.20;;;;;;5033098;28;20454;-73
2022/01/04 11:55:57;;;;;;;19.33;17.83;;;14.10;84.50;;;;;;5033299;28;20546;-73
2022/01/04 11:58:26;;;;;;;19.27;18.07;;;14.10;84.80;;;;;;5033370;28;20452;-73
2022/01/04 12:01:01;;;;;;;19.33;18.30;;;14.00;84.90;;;;;;5033148;28;20494;-73
2022/01/04 12:03:48;;;;;;;19.20;18.20;;;14.00;85.20;;;;;;5033320;28;20547;-73
2022/01/04 12:06:16;;;;;;;18.53;17.50;;;14.00;85.60;;;;;;5033309;28;20447;-73
2022/01/04 12:08:48;;;;;;;18.40;17.37;;;13.90;85.40;;;;;;5033118;28;20952;-73
2022/01/04 12:11:38;;;;;;;18.90;17.73;;;13.90;85.70;;;;;;5032913;28;20575;-73
2022/01/04 12:14:05;;;;;;;17.90;16.90;;;14.00;85.60;;;;;;5033122;28;20459;-73
2022/01/04 12:16:33;;;;;;;18.20;17.10;;;14.00;85.70;;;;;;5033003;28;20452;-73
2022/01/04 12:19:10;;;;;;;18.20;17.30;;;14.00;86.00;;;;;;5032966;28;20586;-73
2022/01/04 12:21:46;;;;;;;19.00;18.00;;;13.90;85.90;;;;;;5032815;28;20451;-73
2022/01/04 12:24:22;;;;;;;17.97;16.97;;;13.90;86.10;;;;;;5032929;28;20463;-73
2022/01/04 12:27:06;;;;;;;18.40;17.40;;;13.90;86.20;;;;;;5033193;28;20534;-73
2022/01/04 12:29:33;;;;;;;21.00;19.80;;;13.90;86.30;;;;;;5032606;28;20479;-73
2022/01/04 12:32:04;;;;;;;18.30;17.10;;;13.80;86.40;;;;;;5032901;28;20480;-73
2022/01/04 12:34:57;;;;;;;18.60;17.50;;;13.90;86.40;;;;;;5032817;28;20934;-73
2022/01/04 12:37:25;;;;;;;19.17;18.07;;;13.90;86.00;;;;;;5032848;28;20470;-73
2022/01/04 12:39:52;;;;;;;19.07;18.17;;;13.80;86.20;;;;;;5032524;28;20482;-73
2022/01/04 12:42:20;;;;;;;17.97;17.10;;;13.80;86.20;;;;;;5032585;28;20454;-74